logo
App data

The Construct

Store | Hub | SteamDB | Site
Developer: Cannibal Panda Studios Publisher: Cannibal Panda Studios
Genre: Action, Adventure, Indie
Languages: English, Hungarian
Tags: Adventure (21), Action (21), Indie (21)
Category: Single-player, Steam Achievements, Steam Trading Cards, Partial Controller Support
Release date: Sep 12, 2016
Price: $2.99
Owners: 20,000 .. 50,000
Followers: 158
Peak concurrent players yesterday: 3
YouTube stats: 6 views and 0 comments for videos uploaded last week, 0 new videos uploaded yesterday.
Playtime total: 03:59 (average) 04:09 (median)

Steam Spy is still in beta, so expect major bugs.

Owners data:

Access restricted.

This feature is only available to users with special access rights. Sorry.

If you want to proceed, you need to register or log in first and then back Steam Spy on Patreon. Look for Indie or Pro pledge.

Don't forget to use the same email as on Steam Spy!

Audience in 2 weeks:

Access restricted.

This feature is only available to users with special access rights. Sorry.

If you want to proceed, you need to register or log in first and then back Steam Spy on Patreon. Look for Indie or Pro pledge.

Don't forget to use the same email as on Steam Spy!

Peak daily concurrent players:

CCU data courtesy of SteamDB. Used with permission.

Hourly concurrent players:

YouTube:

The views data is based on top 50 videos uploaded last week. Actual number of views might be more than the number shown.

The displayed number of videos uploaded yesterday is limited to 50, so if there were more videos uploaded, the number will still show 50.

If the game has commonly used word as its name (like "FEAR" or "Volume") its number of Youtube views might be wrong.

Games similar to this one:

# Game Release date
Price
Score rank
(Userscore / Metascore)
Owners
Players
Playtime (Median)
1 Highrise Heroes: Word Challenge Jan 8, 2016 $4.99N/A (N/A)0 .. 20,0000%00:00 (00:00)
2 Dark Echo May 11, 2015 $2.99N/A (N/A)20,000 .. 50,0000%00:00 (00:00)
3 Rusty Lake Hotel Jan 29, 2016 $1.99N/A (N/A/65%)50,000 .. 100,0004.17%01:45 (00:35)
4 Reflection of Mine Feb 24, 2017 $7.9969% (90%)0 .. 20,0002.86%02:28 (00:49)
5 School of Talent: SUZU-ROUTE Feb 23, 2017 $8.99N/A (N/A)0 .. 20,0000%00:00 (00:00)
6 199X Mar 10, 2015 $1.99N/A (N/A)0 .. 20,0000%00:00 (00:00)
7 Night Shift Feb 23, 2015 $4.99N/A (N/A)0 .. 20,0000%00:00 (00:00)
8 Breathing Fear Oct 7, 2016 $2.99N/A (N/A)20,000 .. 50,0002.22%00:09 (00:03)
9 Serafina's Crown Mar 15, 2016 $7.99N/A (N/A)20,000 .. 50,0000%00:00 (00:00)
10 Dead Secret Mar 28, 2016 $14.99N/A (N/A)20,000 .. 50,0000%00:00 (00:00)
11 East Tower - Takashi May 27, 2015 $5.99N/A (N/A)0 .. 20,0000%00:00 (00:00)
12 Cornerstone: The Song of Tyrim Apr 26, 2016 $19.99N/A (N/A/58%)0 .. 20,0000%00:00 (00:00)
13 Awareness Rooms Jun 16, 2016 $4.99N/A (N/A)0 .. 20,0000%00:00 (00:00)
14 Shutter Apr 2, 2015 $0.99N/A (N/A)20,000 .. 50,0000%00:00 (00:00)
15 CRIMSON ROOM DECADE Jun 9, 2016 $9.99N/A (N/A)0 .. 20,0000%00:00 (00:00)
16 Shadow Puppeteer Sep 29, 2014 $14.99N/A (N/A/57%)50,000 .. 100,0000%00:00 (00:00)
17 Liveza: Death of the Earth May 3, 2016 $2.99N/A (N/A)200,000 .. 500,0000.27%00:47 (00:15)
18 A Wolf in Autumn Oct 27, 2015 $1.99N/A (N/A)0 .. 20,0000%00:00 (00:00)
19 Scrap Garden May 6, 2016 $9.99N/A (N/A/58%)50,000 .. 100,0000%00:00 (00:00)
20 Unearthed Inc: The Lost Temple Dec 16, 2016 $7.49N/A (N/A)0 .. 20,0000%00:00 (00:00)
21 Blueberry Garden Jun 2009 $4.99N/A (N/A/68%)20,000 .. 50,0000%00:00 (00:00)
22 samurai_jazz Jan 27, 2015 $0.99N/A (N/A)20,000 .. 50,0000%00:00 (00:00)
23 The Adventures of Fatman Oct 1, 2015 $1.99N/A (N/A)0 .. 20,0000%00:00 (00:00)
24 Planetship Sep 24, 2015 $8.99N/A (N/A)0 .. 20,0000%00:00 (00:00)
25 Draw Slasher Oct 13, 2016 $4.9925% (71%)0 .. 20,0000%00:00 (00:00)
26 Hamilton's Great Adventure May 31, 2011 $9.99N/A (N/A/77%)100,000 .. 200,0000%00:00 (00:00)
27 Pneuma: Breath of Life Feb 27, 2015 $19.99N/A (N/A/63%)20,000 .. 50,0000%00:00 (00:00)
28 Laraan Jan 11, 2017 $4.99N/A (N/A)200,000 .. 500,0000.21%01:16 (00:25)
29 Enola Sep 18, 2014 $14.99N/A (N/A)20,000 .. 50,0004.35%03:01 (01:50)
30 In Case of Emergency, Release Raptor Aug 29, 2016 FreeN/A (N/A)20,000 .. 50,0000%00:00 (00:00)
31 The Butterfly Sign Dec 13, 2016 $4.9918% (65%)100,000 .. 200,0000%00:00 (00:00)
32 The Grandfather May 3, 2016 $0.99N/A (N/A)20,000 .. 50,0000%00:00 (00:00)
33 Catmouth Island Dec 31, 2014 $0.99N/A (N/A)20,000 .. 50,0000%00:00 (00:00)
34 Sideway New York Nov 15, 2011 $9.99N/A (N/A/71%)50,000 .. 100,0000%00:00 (00:00)
35 The Mahjong Huntress May 25, 2016 $4.99N/A (N/A)50,000 .. 100,0000%00:00 (00:00)
36 Colortone Oct 29, 2015 $4.99N/A (N/A)20,000 .. 50,0009.18%04:28 (04:35)
37 Space Incident Sep 23, 2016 $3.99N/A (N/A)100,000 .. 200,0000.7%03:48 (01:51)
38 Little Jack's Adventures Dec 28, 2016 $0.99N/A (N/A)50,000 .. 100,0000%00:00 (00:00)
39 ENKI Jul 31, 2015 $4.99N/A (N/A/43%)0 .. 20,0000%00:00 (00:00)
40 Rock Zombie Nov 20, 2014 $6.99N/A (N/A)0 .. 20,0000%00:00 (00:00)
41 MechaGore Jun 14, 2016 $4.99N/A (N/A)0 .. 20,0000%00:00 (00:00)
42 Not without my donuts Apr 28, 2015 $3.99N/A (N/A)20,000 .. 50,0000%00:00 (00:00)
43 Alchemist Dec 29, 2016 $2.99N/A (N/A)20,000 .. 50,0000.79%04:22 (01:27)
44 Last Inua Dec 11, 2014 $7.99N/A (N/A)20,000 .. 50,0000%00:00 (00:00)
45 'n Verlore Verstand Apr 5, 2016 $14.99N/A (N/A)0 .. 20,0000%00:00 (00:00)
46 Into Blue Valley Dec 24, 2014 $4.99N/A (N/A)0 .. 20,0000%00:00 (00:00)
47 Lex Mortis Feb 9, 2015 $4.99N/A (N/A)200,000 .. 500,0000%00:00 (00:00)
48 Lost in Paradise Aug 20, 2015 $2.99N/A (N/A)20,000 .. 50,0000%00:00 (00:00)
49 The Growth Journey Jan 7, 2016 $3.99N/A (N/A)100,000 .. 200,0000%00:00 (00:00)
50 Shattered Haven Mar 18, 2013 $9.99N/A (N/A/59%)100,000 .. 200,0000%00:00 (00:00)
51 Bibou Apr 29, 2016 $0.79N/A (N/A)200,000 .. 500,0000%00:00 (00:00)
52 Tesla Breaks the World! Nov 26, 2014 $9.99N/A (N/A)20,000 .. 50,0000%00:00 (00:00)
53 Toxic Terror Jun 3, 2016 $0.99N/A (N/A)0 .. 20,0000%00:00 (00:00)
54 Incognito Mar 23, 2015 $7.99N/A (N/A)20,000 .. 50,0000%00:00 (00:00)
55 A Detective's Novel Jul 28, 2016 $0.99N/A (N/A)200,000 .. 500,0002.31%04:52 (05:23)
56 Dungeon Lurk II - Leona Oct 27, 2014 $9.99N/A (N/A)0 .. 20,0000%00:00 (00:00)
57 Lone Leader Oct 28, 2016 $0.99N/A (N/A)100,000 .. 200,0000.94%08:33 (09:02)
58 Haywire on Fuel Station Zeta Sep 24, 2015 $3.99N/A (N/A)20,000 .. 50,0000%00:00 (00:00)
59 The Grave Digger Apr 29, 2015 $5.99N/A (N/A)0 .. 20,0000%00:00 (00:00)
60 Pillar May 29, 2015 $7.99N/A (N/A)20,000 .. 50,0001.11%04:28 (01:29)
61 Yasai Ninja Jul 21, 2015 $1.99N/A (N/A)0 .. 20,0000%00:00 (00:00)

Owners of this game also own:

Access restricted.

This feature is only available to users with special access rights. Sorry.

If you want to proceed, you need to register or log in first and then back Steam Spy on Patreon. Look for Indie or Pro pledge.

Don't forget to use the same email as on Steam Spy!

Playtime distribution:

Access restricted.

This feature is only available to users with special access rights. Sorry.

If you want to proceed, you need to register or log in first and then back Steam Spy on Patreon. Look for Indie or Pro pledge.

Don't forget to use the same email as on Steam Spy!

Playtime (2 weeks):

Access restricted.

This feature is only available to users with special access rights. Sorry.

If you want to proceed, you need to register or log in first and then back Steam Spy on Patreon. Look for Indie or Pro pledge.

Don't forget to use the same email as on Steam Spy!

User reviews:

Login required.

Please register or log in to see this information.